Terminal Aerodrome Forecast
Issued by NWS

Home | Current Version | Previous Version | Text Only | Print | Product List | Glossary On
Versions: 1 2 3 4 5 6 7 8 9 10 11 12 13 14 15 16 17
000
FTUS43 KDLH 221120
TAFBRD
TAF
KBRD 221120Z 2212/2312 VRB03KT P6SM FEW250
     FM221900 19009G15KT 5SM BR OVC050
     FM222000 18009G15KT 2SM -SN OVC030
     FM222300 18007KT 5SM -SN OVC030
     FM230000 18006KT P6SM OVC045=

USA.gov is the U.S. government's official web portal to all federal, state and local government web resources and services.